Reno, NV

1:27 PM PDT on September 02, 2014 (GMT -0700)
Reno-Tahoe International | Change Station
CLOSE
Current Station
Airport
Location: Reno,
Elevation: 4400 ft
Nearby Weather Stations

Elev 4400 ft 39.51 °N, 119.77 °W | Updated 32 minutes ago

Clear
Clear
87 °F
Feels Like 87 °F
N
0
Wind Variable Wind from North

Today
High -- | Low -- °F
--% Chance of Precip.
Yesterday
High -- | Low -- °F
Precip. -- in
6:28 AM 7:28 PM
First Quarter, 54% visible
Pressure 29.77 in
Visibility 10.0 miles
Clouds Clear
Dew Point 35 °F
Humidity 16%
Rainfall 0.00 in
Snow Depth Not available.
UV 10 out of 12
Pollen 8.20 out of 12
Air Quality Not available.
Flu Activity Not available.
METAR KRNO 021955Z 00000KT 10SM CLR 31/02 A2995 RMK AO2 SLP080 T03060017

More Conditions Fewer Conditions

Pressure 29.77 in
Visibility 10.0 miles
Clouds Clear
Dew Point 35 °F
Humidity 16%
Rainfall 0.00 in
Snow Depth Not available.
UV 10 out of 12
Pollen 8.20 out of 12
Air Quality Not available.
Flu Activity Not available.
METAR KRNO 021955Z 00000KT 10SM CLR 31/02 A2995 RMK AO2 SLP080 T03060017

More Conditions Fewer Conditions

10-Day Weather Forecast

Almanac

Astronomy

Sep. 02, 2014 Rise Set
Actual Time 6:28 AM PDT 7:28 PM PDT
Civil Twilight 6:00 AM PDT 7:55 PM PDT
Nautical Twilight 5:28 AM PDT 8:28 PM PDT
Astronomical Twilight 4:54 AM PDT 9:02 PM PDT
Moon 2:15 PM PDT No Moon Set
Length of Visible Light 13h 54m
Length of Day
12h 59m
Tomorrow will be 2m 29s shorter.
First Quarter, 54% of the Moon is Illuminated
Today
First Quarter
Sep 8
Full
Sep 15
Last Quarter
Sep 24
New
Oct 1
First Quarter

Today's Extremes

State Highs State Lows

Community

WunderPhotos

Upload Photos

1,749,757 photos uploaded!

WunderBlogs® & News

By Dr. Jeff Masters
Director of Meteorology, Weather Underground
By Kari Strenfel
Meteorologist, Weather Underground
By Christopher C. Burt
Weather Historian, Weather Underground
September 2, 2014
September 2, 2014
September 2, 2014

Nearby

Snow Depth

Station Depth Elevation
Sheldon 0 in 5860 ft
Lamance Creek 0 in 6000 ft
Granite Peak 0 in 7800 ft
Buckskin Lower 2 in 6700 ft
Diamond Peak 0 in 8000 ft

Earthquake Activity

City Distance Mag. Time & Date
No recent earthquake activity has been reported nearby.
Minimum magnitude displayed is 2.5.

Coastal Water Temperatures

Place Temperature
No Stations Reporting

Nearby Weather Stations